Data for 04/01/2007

Time Sea-Level Adjusted Pressure Absolute Pressure Temperature Relative Humidity Dew Point   
(mb) (inHg) (mb) (inHg) (C) (F) (%) (C) (F)
00:05 1011 29.85 840 24.81 6.9 44.3 55 -1.5 29.2
00:10 1011 29.85 840 24.81 7.2 44.9 55 -1.2 29.9
00:15 1011 29.85 840 24.81 7.3 45.1 53 -1.6 29.1
00:20 1011 29.85 840 24.81 7.3 45.1 53 -1.7 28.9
00:25 1011 29.85 840 24.81 7.2 45 56 -1 30.2
00:30 1011 29.85 840 24.81 6.8 44.3 59 -0.5 31.1
00:35 1011 29.85 840 24.81 6.5 43.7 61 -0.4 31.3
00:40 1011 29.85 840 24.81 6.2 43.2 65 0.2 32.3
00:45 1011 29.85 840 24.81 6 42.7 67 0.4 32.6
00:50 1011 29.85 840 24.81 5.9 42.6 68 0.4 32.8
00:55 1011 29.85 841 24.83 5.5 41.8 75 1.4 34.5
01:00 1011 29.85 841 24.83 5 41 78 1.5 34.8
01:05 1012 29.88 841 24.83 4.6 40.4 81 1.6 34.9
01:10 1012 29.88 841 24.83 3.4 38.1 87 1.4 34.6
01:15 1012 29.88 841 24.83 2.9 37.3 89 1.3 34.4
01:20 1012 29.88 841 24.83 3 37.5 89 1.4 34.5
01:25 1012 29.88 841 24.83 3.2 37.7 89 1.5 34.8
01:30 1012 29.88 841 24.83 3.2 37.7 89 1.6 34.9
01:35 1012 29.88 841 24.83 3.2 37.8 89 1.5 34.8
01:40 1012 29.88 841 24.83 3.2 37.7 89 1.5 34.7
01:45 1012 29.88 841 24.83 3.2 37.8 89 1.6 34.9
01:50 1012 29.88 841 24.83 3.2 37.7 89 1.5 34.8
01:55 1012 29.88 841 24.83 2.9 37.2 89 1.3 34.3
02:00 1012 29.88 841 24.83 2.4 36.2 91 1 33.7
02:05 1012 29.88 841 24.83 2.3 36.2 92 1.1 34
02:10 1012 29.88 841 24.83 2.3 36.2 92 1.2 34.1
02:15 1012 29.88 841 24.83 2.5 36.5 92 1.3 34.3
02:20 1012 29.88 841 24.83 2.3 36.1 93 1.2 34.2
02:25 1012 29.88 841 24.83 2.2 36 92 1.1 34
02:30 1012 29.88 841 24.83 2.1 35.8 92 1 33.7
02:35 1012 29.88 841 24.83 2.1 35.7 93 1 33.7
02:40 1012 29.88 841 24.83 2 35.5 93 1 33.8
02:45 1012 29.88 841 24.83 2.1 35.7 92 0.9 33.7
02:50 1012 29.88 841 24.83 1.9 35.4 93 0.8 33.5
02:55 1012 29.88 841 24.83 1.5 34.6 94 0.6 33.2
03:00 1012 29.88 841 24.83 1.1 33.9 96 0.5 33
03:05 1012 29.88 841 24.83 1.1 34 97 0.7 33.2
03:10 1011 29.85 841 24.83 1.1 33.9 96 0.5 33
03:15 1011 29.85 840 24.81 0.9 33.5 97 0.4 32.7
03:20 1011 29.85 840 24.81 0.8 33.4 97 0.4 32.7
03:25 1011 29.85 840 24.81 0.8 33.5 97 0.4 32.8
03:30 1011 29.85 840 24.81 1 33.8 97 0.5 33
03:35 1011 29.85 840 24.81 1.1 33.9 96 0.5 33
03:40 1011 29.85 840 24.81 1 33.9 96 0.5 32.8
03:45 1011 29.85 840 24.81 1 33.8 96 0.4 32.8
03:50 1011 29.85 840 24.81 1 33.9 97 0.5 33
03:55 1011 29.85 840 24.81 1.2 34.1 96 0.7 33.2
04:00 1011 29.85 840 24.81 1.3 34.3 96 0.7 33.3
04:05 1011 29.85 840 24.81 1.2 34.2 96 0.6 33.1
04:10 1011 29.85 840 24.81 1.2 34.2 96 0.7 33.2
04:15 1011 29.85 840 24.81 1.3 34.3 96 0.7 33.3
04:20 1011 29.85 840 24.81 1.2 34.2 96 0.7 33.3
04:25 1011 29.85 840 24.81 1.2 34.2 96 0.7 33.2
04:30 1011 29.85 840 24.81 1.2 34.1 97 0.7 33.2
04:35 1011 29.85 840 24.81 1.1 33.9 97 0.6 33.1
04:40 1011 29.85 840 24.81 1 33.8 97 0.6 33
04:45 1011 29.85 840 24.81 0.9 33.7 97 0.5 33
04:50 1011 29.85 840 24.81 1 33.8 97 0.5 33
04:55 1011 29.85 840 24.81 0.8 33.5 97 0.4 32.8
05:00 1011 29.85 840 24.81 0.7 33.3 97 0.3 32.5
05:05 1011 29.85 840 24.81 0.7 33.2 97 0.3 32.5
05:10 1011 29.85 840 24.81 0.6 33 98 0.2 32.4
05:15 1011 29.85 840 24.81 0.6 33.1 97 0.2 32.4
05:20 1011 29.85 840 24.81 0.5 32.9 98 0.1 32.3
05:25 1011 29.85 841 24.83 0.5 33 98 0.2 32.4
05:30 1011 29.85 841 24.83 0.6 33 98 0.3 32.5
05:35 1011 29.85 841 24.83 0.7 33.2 98 0.4 32.7
05:40 1011 29.85 841 24.83 0.7 33.3 98 0.5 32.8
05:45 1011 29.85 841 24.83 0.8 33.4 98 0.4 32.8
05:50 1011 29.85 841 24.83 0.8 33.4 98 0.5 32.8
05:55 1012 29.88 841 24.83 0.8 33.5 97 0.4 32.8
06:00 1012 29.88 841 24.83 0.8 33.4 97 0.4 32.7
06:05 1012 29.88 841 24.83 0.7 33.3 97 0.3 32.6
06:10 1012 29.88 841 24.83 0.7 33.3 97 0.3 32.5
06:15 1012 29.88 841 24.83 0.7 33.2 97 0.3 32.5
06:20 1011 29.85 841 24.83 0.7 33.2 97 0.2 32.4
06:25 1011 29.85 841 24.83 0.7 33.2 97 0.3 32.5
06:30 1011 29.85 841 24.83 0.7 33.3 97 0.3 32.6
06:35 1012 29.88 841 24.83 0.8 33.4 97 0.3 32.6
06:40 1012 29.88 841 24.83 0.7 33.3 97 0.2 32.4
06:45 1012 29.88 841 24.83 0.7 33.3 97 0.2 32.4
06:50 1012 29.88 841 24.83 0.6 33.1 97 0.1 32.2
06:55 1012 29.88 841 24.83 0.4 32.7 97 -0 32
07:00 1012 29.88 841 24.83 0.3 32.5 98 -0.1 31.9
07:05 1012 29.88 841 24.83 0.2 32.4 98 -0.1 31.9
07:10 1012 29.88 841 24.83 0.1 32.3 98 -0.1 31.8
07:15 1012 29.88 841 24.83 0.2 32.4 98 -0 32
07:20 1012 29.88 841 24.83 0.3 32.5 99 0.1 32.1
07:25 1012 29.88 841 24.83 0.4 32.7 98 0.1 32.3
07:30 1012 29.88 841 24.83 0.4 32.7 99 0.2 32.4
07:35 1012 29.88 841 24.83 0.5 32.8 99 0.3 32.5
07:40 1012 29.88 841 24.83 0.5 32.9 99 0.3 32.5
07:45 1012 29.88 841 24.83 0.6 33 98 0.3 32.6
07:50 1012 29.88 841 24.83 0.6 33.1 98 0.3 32.6
07:55 1012 29.88 841 24.83 0.6 33 98 0.3 32.5
08:00 1012 29.88 841 24.83 0.6 33.1 98 0.3 32.6
08:05 1012 29.88 841 24.83 0.6 33.1 98 0.3 32.6
08:10 1012 29.88 841 24.83 0.7 33.2 98 0.4 32.7
08:15 1012 29.88 841 24.83 0.8 33.5 98 0.5 33
08:20 1012 29.88 841 24.83 0.8 33.4 97 0.4 32.7
08:25 1012 29.88 841 24.83 0.7 33.2 98 0.3 32.6
08:30 1012 29.88 841 24.83 0.7 33.2 98 0.4 32.6
08:35 1012 29.88 841 24.83 0.7 33.2 97 0.3 32.6
08:40 1012 29.88 841 24.83 0.8 33.4 98 0.4 32.7
08:45 1012 29.88 841 24.83 1 33.9 98 0.7 33.3
08:50 1012 29.88 841 24.83 1.3 34.3 97 0.9 33.6
08:55 1012 29.88 841 24.83 1.5 34.8 96 1 33.8
09:00 1012 29.88 841 24.83 1.7 35.1 95 1.1 34
09:05 1012 29.88 841 24.83 1.9 35.4 94 1 33.9
09:10 1012 29.88 841 24.83 1.8 35.3 92 0.7 33.3
09:15 1012 29.88 841 24.83 1.4 34.6 94 0.5 33
09:20 1012 29.88 841 24.83 1.3 34.4 95 0.6 33
09:25 1012 29.88 841 24.83 1.4 34.5 94 0.6 33.1
09:30 1012 29.88 841 24.83 1.6 34.9 94 0.7 33.3
09:35 1012 29.88 841 24.83 2.1 35.7 93 1 33.8
09:40 1012 29.88 841 24.83 2.5 36.5 90 1.1 34
09:45 1012 29.88 841 24.83 2.9 37.2 88 1.1 34
09:50 1012 29.88 841 24.83 3.2 37.8 88 1.3 34.4
09:55 1012 29.88 841 24.83 3.6 38.4 84 1.1 34
10:00 1012 29.88 841 24.83 3.8 38.9 83 1.3 34.3
10:05 1012 29.88 841 24.83 4 39.2 82 1.2 34.2
10:10 1012 29.88 841 24.83 4 39.2 84 1.6 34.9
10:15 1012 29.88 841 24.83 4 39.2 85 1.7 35
10:20 1012 29.88 841 24.83 4.1 39.3 85 1.8 35.2
10:25 1012 29.88 841 24.83 4.3 39.8 83 1.7 35.1
10:30 1012 29.88 841 24.83 4.3 39.7 84 1.9 35.4
10:35 1012 29.88 841 24.83 3.8 38.9 84 1.4 34.6
10:40 1012 29.88 841 24.83 3.3 37.9 88 1.4 34.6
10:45 1012 29.88 841 24.83 3.7 38.7 86 1.6 35
10:50 1012 29.88 841 24.83 4.2 39.6 84 1.7 35
10:55 1012 29.88 841 24.83 5.1 41.2 80 2 35.6
11:00 1012 29.88 841 24.83 5.7 42.3 75 1.7 35.1
11:05 1012 29.88 841 24.83 5.4 41.8 74 1.2 34.1
11:10 1012 29.88 841 24.83 5.2 41.3 74 0.9 33.7
11:15 1012 29.88 841 24.83 5.9 42.6 71 0.9 33.7
11:20 1012 29.88 841 24.83 6.2 43.1 68 0.8 33.4
11:25 1012 29.88 841 24.83 6.2 43.2 73 1.7 35.1
11:30 1012 29.88 841 24.83 6.5 43.8 76 2.6 36.7
11:35 1012 29.88 841 24.83 6.4 43.5 74 2.1 35.7
11:40 1012 29.88 841 24.83 6.1 42.9 78 2.5 36.4
11:45 1012 29.88 841 24.83 5.9 42.6 79 2.5 36.5
11:50 1012 29.88 841 24.83 6.3 43.4 77 2.7 36.8
11:55 1012 29.88 841 24.83 6.4 43.5 75 2.3 36.2
12:00 1012 29.88 841 24.83 6.8 44.2 71 1.9 35.4
12:05 1012 29.88 841 24.83 7.4 45.2 64 1 33.8
12:10 1012 29.88 841 24.83 6.6 44 66 0.8 33.4
12:15 1012 29.88 841 24.83 6.9 44.5 62 0.2 32.4
12:20 1012 29.88 841 24.83 7.7 45.8 66 1.8 35.3
12:25 1012 29.88 841 24.83 8.4 47 60 1 33.8
12:30 1012 29.88 841 24.83 8.4 47.1 60 1.1 33.9
12:35 1012 29.88 841 24.83 8.6 47.4 65 2.4 36.3
12:40 1012 29.88 841 24.83 7.7 45.9 59 0.3 32.6
12:45 1011 29.85 841 24.83 7 44.6 61 -0 31.9
12:50 1011 29.85 841 24.83 6.3 43.3 66 0.3 32.6
12:55 1011 29.85 841 24.83 6.8 44.2 60 -0.4 31.4
13:00 1011 29.85 841 24.83 6.7 44 64 0.3 32.6
13:05 1011 29.85 841 24.83 7 44.6 61 -0.1 31.9
13:10 1011 29.85 840 24.81 7.3 45.1 59 -0.2 31.6
13:15 1011 29.85 840 24.81 7.8 46.1 57 -0.2 31.6
13:20 1011 29.85 840 24.81 8.6 47.4 55 0.1 32.2
13:25 1011 29.85 840 24.81 8.8 47.9 53 -0.3 31.5
13:30 1011 29.85 840 24.81 8 46.4 57 0.1 32.1
13:35 1011 29.85 840 24.81 8.2 46.7 57 0.3 32.5
13:40 1011 29.85 840 24.81 8.3 46.9 54 -0.5 31
13:45 1011 29.85 840 24.81 7.9 46.3 55 -0.6 30.9
13:50 1011 29.85 840 24.81 8.2 46.8 54 -0.6 30.9
13:55 1011 29.85 840 24.81 8.8 47.9 52 -0.4 31.2
14:00 1011 29.85 840 24.81 9.1 48.3 48 -1.4 29.5
14:05 1011 29.85 840 24.81 9.7 49.4 48 -0.8 30.6
14:10 1011 29.85 840 24.81 10 50 48 -0.5 31.1
14:15 1011 29.85 840 24.81 9.4 48.8 47 -1.3 29.7
14:20 1011 29.85 840 24.81 10 50 45 -1.4 29.4
14:25 1011 29.85 840 24.81 10.1 50.1 43 -2 28.4
14:30 1011 29.85 840 24.81 10.4 50.7 46 -0.7 30.8
14:35 1011 29.85 840 24.81 8.3 46.9 65 2.1 35.8
14:40 1011 29.85 840 24.81 6.3 43.3 71 1.4 34.5
14:45 1011 29.85 840 24.81 4.7 40.4 76 0.8 33.5
14:50 1011 29.85 840 24.81 4.8 40.7 75 0.8 33.5
14:55 1011 29.85 840 24.81 4.8 40.6 73 0.4 32.7
15:00 1011 29.85 840 24.81 4.6 40.2 75 0.5 32.8
15:05 1011 29.85 840 24.81 4.5 40 76 0.5 32.9
15:10 1011 29.85 840 24.81 4.5 40 74 0.3 32.5
15:15 1011 29.85 840 24.81 4.7 40.5 72 0.1 32.2
15:20 1011 29.85 840 24.81 4.6 40.3 71 -0.1 31.7
15:25 1011 29.85 840 24.81 4.6 40.2 70 -0.5 31
15:30 1011 29.85 840 24.81 5.1 41.2 68 -0.3 31.5
15:35 1011 29.85 840 24.81 4.8 40.7 71 -0 31.9
15:40 1011 29.85 841 24.83 4.5 40.1 77 0.8 33.5
15:45 1012 29.88 841 24.83 3.7 38.7 82 0.9 33.6
15:50 1011 29.85 841 24.83 3 37.4 87 1 33.7
15:55 1011 29.85 840 24.81 2.7 36.8 90 1.1 34
16:00 1011 29.85 840 24.81 3 37.3 89 1.3 34.4
16:05 1011 29.85 840 24.81 3.2 37.7 87 1.3 34.3
16:10 1011 29.85 840 24.81 3.1 37.5 89 1.4 34.4
16:15 1011 29.85 840 24.81 3.7 38.7 86 1.7 35
16:20 1011 29.85 840 24.81 4.5 40.2 80 1.5 34.6
16:25 1011 29.85 840 24.81 4.8 40.6 82 2 35.7
16:30 1011 29.85 840 24.81 4.1 39.4 85 1.7 35.1
16:35 1011 29.85 840 24.81 4.1 39.5 85 1.8 35.2
16:40 1011 29.85 840 24.81 4.9 40.9 80 1.8 35.2
16:45 1011 29.85 840 24.81 5.6 42 77 1.9 35.4
16:50 1011 29.85 840 24.81 5.3 41.5 78 1.7 35.1
16:55 1011 29.85 840 24.81 4.8 40.6 79 1.5 34.8
17:00 1011 29.85 840 24.81 5.5 41.8 76 1.6 34.9
17:05 1011 29.85 840 24.81 5.7 42.3 75 1.6 34.9
17:10 1011 29.85 840 24.81 5.7 42.2 78 2.2 36
17:15 1011 29.85 840 24.81 5.9 42.6 76 2 35.7
17:20 1011 29.85 840 24.81 6.1 42.9 76 2.1 35.8
17:25 1011 29.85 840 24.81 6.4 43.6 74 2.2 36
17:30 1011 29.85 840 24.81 6.4 43.4 74 2.1 35.8
17:35 1011 29.85 840 24.81 5 41 79 1.8 35.2
17:40 1011 29.85 840 24.81 4.6 40.3 80 1.4 34.5
17:45 1011 29.85 840 24.81 4.4 39.9 79 1 33.9
17:50 1011 29.85 840 24.81 4.1 39.4 80 0.9 33.6
17:55 1011 29.85 840 24.81 4 39.2 80 0.9 33.6
18:00 1011 29.85 840 24.81 4.2 39.6 79 0.9 33.6
18:05 1011 29.85 840 24.81 4.3 39.7 80 1.1 34
18:10 1011 29.85 840 24.81 4.3 39.7 78 0.7 33.3
18:15 1011 29.85 840 24.81 4.4 39.9 77 0.8 33.4
18:20 1011 29.85 840 24.81 4.5 40 76 0.6 33
18:25 1011 29.85 840 24.81 4.3 39.8 75 0.3 32.6
18:30 1011 29.85 840 24.81 4.3 39.8 75 0.3 32.5
18:35 1011 29.85 840 24.81 4.5 40.1 75 0.5 32.9
18:40 1011 29.85 840 24.81 4.4 40 76 0.6 33
18:45 1011 29.85 840 24.81 4.4 39.9 77 0.6 33.1
18:50 1011 29.85 840 24.81 4.5 40 76 0.7 33.2
18:55 1011 29.85 840 24.81 4.7 40.4 75 0.6 33
19:00 1011 29.85 840 24.81 4.7 40.4 74 0.5 32.9
19:05 1011 29.85 840 24.81 4.7 40.4 74 0.5 32.8
19:10 1011 29.85 840 24.81 4.7 40.5 74 0.5 32.9
19:15 1010 29.83 840 24.81 4.7 40.4 75 0.6 33.1
19:20 1010 29.83 840 24.81 4.7 40.5 75 0.7 33.2
19:25 1010 29.83 840 24.81 4.7 40.4 76 0.8 33.4
19:30 1010 29.83 840 24.81 4.5 40.2 76 0.7 33.3
19:35 1010 29.83 840 24.81 4.4 40 75 0.4 32.7
19:40 1010 29.83 840 24.81 4.3 39.8 77 0.6 33.1
19:45 1010 29.83 840 24.81 4.2 39.5 77 0.5 33
19:50 1010 29.83 840 24.81 4.1 39.4 77 0.4 32.8
19:55 1010 29.83 840 24.81 4 39.3 77 0.3 32.6
20:00 1010 29.83 840 24.81 4 39.2 77 0.4 32.7
20:05 1010 29.83 840 24.81 3.9 39 78 0.4 32.7
20:10 1010 29.83 840 24.81 3.9 39 80 0.7 33.3
20:15 1010 29.83 839 24.78 4 39.1 79 0.7 33.3
20:20 1010 29.83 839 24.78 4 39.2 80 0.8 33.4
20:25 1010 29.83 839 24.78 3.9 39.1 80 0.8 33.4
20:30 1010 29.83 840 24.81 3.8 38.9 81 0.9 33.6
20:35 1010 29.83 840 24.81 3.7 38.6 81 0.8 33.4
20:40 1010 29.83 840 24.81 3.6 38.6 82 0.8 33.5
20:45 1010 29.83 840 24.81 3.6 38.5 82 0.8 33.4
20:50 1011 29.85 840 24.81 3.7 38.7 81 0.7 33.3
20:55 1011 29.85 840 24.81 3.7 38.6 82 0.8 33.5
21:00 1011 29.85 840 24.81 3.6 38.5 83 1 33.8
21:05 1011 29.85 840 24.81 3.5 38.4 83 1 33.7
21:10 1011 29.85 840 24.81 3.6 38.5 82 0.8 33.4
21:15 1011 29.85 840 24.81 3.7 38.6 81 0.7 33.3
21:20 1011 29.85 840 24.81 3.6 38.5 82 0.9 33.5
21:25 1011 29.85 840 24.81 3.6 38.4 84 1.1 34
21:30 1011 29.85 840 24.81 3.5 38.3 85 1.2 34.1
21:35 1011 29.85 840 24.81 3.4 38 86 1.2 34.2
21:40 1011 29.85 840 24.81 3.3 37.9 87 1.3 34.4
21:45 1011 29.85 840 24.81 3.2 37.7 87 1.2 34.1
21:50 1011 29.85 840 24.81 3.1 37.5 87 1.1 34
21:55 1011 29.85 840 24.81 2.9 37.3 87 0.9 33.7
22:00 1011 29.85 840 24.81 2.9 37.2 87 1 33.8
22:05 1011 29.85 840 24.81 2.8 37 88 1.1 33.9
22:10 1011 29.85 840 24.81 2.6 36.7 89 1.1 33.9
22:15 1011 29.85 840 24.81 2.5 36.6 91 1.2 34.1
22:20 1011 29.85 840 24.81 2.4 36.4 91 1.1 33.9
22:25 1011 29.85 840 24.81 2.3 36.2 91 1 33.8
22:30 1011 29.85 840 24.81 2.2 35.9 92 1 33.8
22:35 1011 29.85 840 24.81 2.1 35.7 92 0.9 33.7
22:40 1010 29.83 840 24.81 2 35.6 93 0.9 33.7
22:45 1010 29.83 840 24.81 1.9 35.4 93 0.9 33.6
22:50 1010 29.83 840 24.81 1.8 35.3 94 0.9 33.7
22:55 1010 29.83 840 24.81 1.8 35.2 94 0.9 33.6
23:00 1010 29.83 840 24.81 1.7 35 94 0.9 33.5
23:05 1010 29.83 840 24.81 1.6 34.9 95 0.9 33.6
23:10 1010 29.83 840 24.81 1.6 34.8 95 0.9 33.5
23:15 1010 29.83 840 24.81 1.6 34.8 95 0.9 33.5
23:20 1010 29.83 840 24.81 1.6 34.8 95 0.9 33.6
23:25 1010 29.83 840 24.81 1.6 34.9 95 0.9 33.6
23:30 1010 29.83 840 24.81 1.5 34.8 95 0.8 33.5
23:35 1010 29.83 840 24.81 1.5 34.6 95 0.8 33.4
23:40 1010 29.83 839 24.78 1.4 34.6 96 0.8 33.4
23:45 1010 29.83 839 24.78 1.4 34.5 96 0.8 33.4
23:50 1010 29.83 839 24.78 1.4 34.6 96 0.8 33.5
23:55 1010 29.83 839 24.78 1.5 34.6 96 0.8 33.5
24:00 1010 29.83 839 24.78 1.4 34.6 96 0.8 33.4